createdAt,value
2023-04-26T00:01:05.616Z,101406.34
2023-04-26T00:03:33.098Z,101407.19
2023-04-26T00:06:05.816Z,101405.50
2023-04-26T00:08:32.200Z,101403.38
2023-04-26T00:10:58.629Z,101402.91
2023-04-26T00:13:25.105Z,101402.19
2023-04-26T00:15:51.705Z,101410.59
2023-04-26T00:18:18.204Z,101409.78
2023-04-26T00:20:44.712Z,101414.00
2023-04-26T00:23:11.120Z,101410.69
2023-04-26T00:25:38.661Z,101404.78
2023-04-26T00:28:05.047Z,101401.81
2023-04-26T00:30:32.321Z,101404.56
2023-04-26T00:32:58.720Z,101402.78
2023-04-26T00:35:25.535Z,101396.97
2023-04-26T00:37:52.157Z,101397.81
2023-04-26T00:40:20.568Z,101390.38
2023-04-26T00:42:46.949Z,101389.50
2023-04-26T00:45:13.367Z,101382.34
2023-04-26T00:47:40.715Z,101384.41
2023-04-26T00:50:07.983Z,101389.06
2023-04-26T00:52:34.407Z,101385.03
2023-04-26T00:55:01.366Z,101383.16
2023-04-26T00:57:27.762Z,101382.06
2023-04-26T00:59:54.176Z,101376.97
2023-04-26T01:02:20.944Z,101377.81
2023-04-26T01:04:48.086Z,101382.84
2023-04-26T01:07:14.492Z,101384.75
2023-04-26T01:09:41.004Z,101385.81
2023-04-26T01:12:08.989Z,101385.13
2023-04-26T01:14:36.787Z,101387.13
2023-04-26T01:17:03.824Z,101389.31
2023-04-26T01:19:30.272Z,101392.16
2023-04-26T01:21:56.624Z,101397.34
2023-04-26T01:24:23.215Z,101397.31
2023-04-26T01:26:49.737Z,101396.06
2023-04-26T01:29:20.237Z,101391.44
2023-04-26T01:31:48.047Z,101397.47
2023-04-26T01:34:14.760Z,101397.09
2023-04-26T01:36:41.635Z,101395.06
2023-04-26T01:39:10.649Z,101394.75
2023-04-26T01:41:37.138Z,101392.34
2023-04-26T01:44:03.920Z,101401.19
2023-04-26T01:46:30.331Z,101402.47
2023-04-26T01:48:57.361Z,101395.13
2023-04-26T01:51:23.912Z,101390.25
2023-04-26T01:53:50.334Z,101393.94
2023-04-26T01:56:17.214Z,101391.94
2023-04-26T01:58:43.598Z,101392.28
2023-04-26T02:01:10.242Z,101395.25
2023-04-26T02:03:36.730Z,101389.94
2023-04-26T02:06:03.795Z,101391.75
2023-04-26T02:08:30.210Z,101401.28
2023-04-26T02:10:56.968Z,101397.75
2023-04-26T02:13:23.392Z,101400.97
2023-04-26T02:15:51.306Z,101399.53
2023-04-26T02:18:17.975Z,101390.25
2023-04-26T02:20:45.713Z,101393.56
2023-04-26T02:23:12.550Z,101396.97
2023-04-26T02:25:39.362Z,101395.13
2023-04-26T02:28:06.443Z,101394.50
2023-04-26T02:30:32.999Z,101396.66
2023-04-26T02:32:59.583Z,101390.09
2023-04-26T02:35:26.660Z,101397.88
2023-04-26T02:37:53.135Z,101400.53
2023-04-26T02:40:19.860Z,101391.13
2023-04-26T02:42:46.421Z,101392.81
2023-04-26T02:45:12.992Z,101386.97
2023-04-26T02:47:39.731Z,101391.56
2023-04-26T02:50:10.622Z,101390.19
2023-04-26T02:52:37.153Z,101388.38
2023-04-26T02:55:04.507Z,101387.66
2023-04-26T02:57:31.778Z,101387.53
2023-04-26T02:59:58.761Z,101390.88
2023-04-26T03:02:25.871Z,101388.78
2023-04-26T03:04:52.673Z,101384.88
2023-04-26T03:07:19.118Z,101387.75
2023-04-26T03:09:45.682Z,101386.94
2023-04-26T03:12:12.116Z,101382.34
2023-04-26T03:14:39.062Z,101373.97
2023-04-26T03:17:06.177Z,101380.81
2023-04-26T03:19:32.747Z,101382.47
2023-04-26T03:21:59.138Z,101376.22
2023-04-26T03:24:25.569Z,101378.97
2023-04-26T03:26:52.423Z,101380.41
2023-04-26T03:29:18.762Z,101367.44
2023-04-26T03:31:45.390Z,101370.97
2023-04-26T03:34:11.764Z,101363.47
2023-04-26T03:36:38.495Z,101362.75
2023-04-26T03:39:06.127Z,101365.09
2023-04-26T03:41:33.517Z,101366.13
2023-04-26T03:43:59.990Z,101365.09
2023-04-26T03:46:26.456Z,101366.44
2023-04-26T03:48:53.107Z,101364.78
2023-04-26T03:51:19.730Z,101362.06
2023-04-26T03:53:48.601Z,101365.00
2023-04-26T03:56:15.027Z,101360.03
2023-04-26T03:58:42.073Z,101362.75
2023-04-26T04:01:08.697Z,101361.38
2023-04-26T04:03:36.237Z,101364.09
2023-04-26T04:06:05.010Z,101364.94
2023-04-26T04:08:31.924Z,101370.53
2023-04-26T04:10:58.448Z,101376.75
2023-04-26T04:13:24.870Z,101375.97
2023-04-26T04:15:51.742Z,101372.69
2023-04-26T04:18:18.192Z,101374.31
2023-04-26T04:20:44.973Z,101369.09
2023-04-26T04:23:11.449Z,101371.16
2023-04-26T04:25:38.866Z,101374.28
2023-04-26T04:28:05.285Z,101378.41
2023-04-26T04:30:32.041Z,101382.16
2023-04-26T04:33:01.459Z,101382.16
2023-04-26T04:35:33.576Z,101395.19
2023-04-26T04:38:00.410Z,101390.25
2023-04-26T04:40:27.359Z,101389.44
2023-04-26T04:42:54.801Z,101390.06
2023-04-26T04:45:21.655Z,101390.16
2023-04-26T04:47:48.400Z,101390.31
2023-04-26T04:50:14.915Z,101393.75
2023-04-26T04:52:42.502Z,101395.78
2023-04-26T04:55:09.871Z,101396.69
2023-04-26T04:57:36.255Z,101394.63
2023-04-26T05:00:09.991Z,101401.97
2023-04-26T05:02:37.372Z,101402.50
2023-04-26T05:05:05.084Z,101399.81
2023-04-26T05:07:32.444Z,101403.22
2023-04-26T05:09:59.614Z,101422.66
2023-04-26T05:12:26.119Z,101416.22
2023-04-26T05:14:52.519Z,101412.34
2023-04-26T05:17:18.911Z,101415.50
2023-04-26T05:19:45.724Z,101420.78
2023-04-26T05:22:17.973Z,101426.13
2023-04-26T05:24:47.678Z,101427.47
2023-04-26T05:27:14.547Z,101420.25
2023-04-26T05:29:41.606Z,101423.50
2023-04-26T05:32:08.305Z,101419.78
2023-04-26T05:34:35.153Z,101425.94
2023-04-26T05:37:01.489Z,101427.28
2023-04-26T05:39:27.955Z,101431.31
2023-04-26T05:41:54.428Z,101429.63
2023-04-26T05:44:20.939Z,101427.78
2023-04-26T05:46:47.500Z,101438.56
2023-04-26T05:49:13.903Z,101431.84
2023-04-26T05:51:40.657Z,101434.38
2023-04-26T05:54:07.399Z,101438.00
2023-04-26T05:56:33.823Z,101438.84
2023-04-26T05:59:00.313Z,101445.72
2023-04-26T06:01:27.624Z,101449.88
2023-04-26T06:03:58.025Z,101451.16
2023-04-26T06:06:28.204Z,101443.34
2023-04-26T06:08:54.823Z,101446.41
2023-04-26T06:11:21.282Z,101458.81
2023-04-26T06:13:47.731Z,101460.66
2023-04-26T06:16:14.156Z,101448.16
2023-04-26T06:18:40.657Z,101456.28
2023-04-26T06:21:07.961Z,101444.59
2023-04-26T06:23:34.453Z,101452.78
2023-04-26T06:26:00.875Z,101447.25
2023-04-26T06:28:27.370Z,101463.88
2023-04-26T06:30:53.808Z,101457.22
2023-04-26T06:33:20.497Z,101465.50
2023-04-26T06:35:46.986Z,101460.59
2023-04-26T06:38:13.389Z,101456.66
2023-04-26T06:40:39.800Z,101464.84
2023-04-26T06:43:06.195Z,101463.50
2023-04-26T06:45:32.605Z,101459.25
2023-04-26T06:48:00.868Z,101460.06
2023-04-26T06:50:27.596Z,101454.09
2023-04-26T06:52:54.146Z,101459.88
2023-04-26T06:55:21.036Z,101448.56
2023-04-26T06:57:47.599Z,101449.41
2023-04-26T07:00:14.613Z,101447.84
2023-04-26T07:02:41.288Z,101450.19
2023-04-26T07:05:08.748Z,101448.78
2023-04-26T07:07:35.763Z,101459.03
2023-04-26T07:10:03.447Z,101456.78
2023-04-26T07:12:29.851Z,101457.41
2023-04-26T07:14:57.407Z,101467.06
2023-04-26T07:17:23.875Z,101458.94
2023-04-26T07:19:50.242Z,101460.16
2023-04-26T07:22:16.617Z,101462.19
2023-04-26T07:24:43.011Z,101456.03
2023-04-26T07:27:09.999Z,101456.59
2023-04-26T07:29:36.425Z,101453.19
2023-04-26T07:32:02.798Z,101449.28
2023-04-26T07:34:29.285Z,101455.88
2023-04-26T07:36:56.601Z,101453.72
2023-04-26T07:39:23.275Z,101448.53
2023-04-26T07:41:49.901Z,101443.16
2023-04-26T07:44:16.257Z,101450.56
2023-04-26T07:46:42.711Z,101457.16
2023-04-26T07:49:09.127Z,101460.38
2023-04-26T07:51:36.430Z,101455.69
2023-04-26T07:54:02.856Z,101455.75
2023-04-26T07:56:29.244Z,101453.91
2023-04-26T07:58:56.203Z,101452.28
2023-04-26T08:01:22.745Z,101449.50
2023-04-26T08:03:49.496Z,101451.44
2023-04-26T08:06:16.720Z,101438.03
2023-04-26T08:08:45.564Z,101445.34
2023-04-26T08:11:12.028Z,101447.03
2023-04-26T08:13:38.575Z,101446.31
2023-04-26T08:16:05.721Z,101445.09
2023-04-26T08:18:32.096Z,101448.94
2023-04-26T08:20:58.516Z,101456.94
2023-04-26T08:23:24.924Z,101450.34
2023-04-26T08:25:51.468Z,101461.44
2023-04-26T08:28:17.889Z,101459.09
2023-04-26T08:30:44.347Z,101450.03
2023-04-26T08:33:11.043Z,101462.50
2023-04-26T08:35:37.510Z,101448.38
2023-04-26T08:38:04.044Z,101454.03
2023-04-26T08:40:31.722Z,101455.75
2023-04-26T08:42:58.125Z,101452.91
2023-04-26T08:45:24.954Z,101451.84
2023-04-26T08:47:56.996Z,101447.88
2023-04-26T08:50:24.229Z,101452.25
2023-04-26T08:52:52.284Z,101453.84
2023-04-26T08:55:20.395Z,101447.16
2023-04-26T08:57:48.309Z,101442.66
2023-04-26T09:00:16.424Z,101450.75
2023-04-26T09:02:51.206Z,101457.25
2023-04-26T09:05:23.516Z,101460.78
2023-04-26T09:07:51.222Z,101455.28
2023-04-26T09:10:22.157Z,101452.28
2023-04-26T09:12:55.938Z,101450.44
2023-04-26T09:15:24.193Z,101451.09
2023-04-26T09:17:51.819Z,101451.03
2023-04-26T09:20:25.834Z,101452.84
2023-04-26T09:23:03.522Z,101454.91
2023-04-26T09:25:31.178Z,101455.00
2023-04-26T09:27:58.631Z,101454.31
2023-04-26T09:30:26.416Z,101448.13
2023-04-26T09:33:03.822Z,101447.91
2023-04-26T09:35:34.766Z,101449.53
2023-04-26T09:38:11.115Z,101444.63
2023-04-26T09:40:44.421Z,101436.66
2023-04-26T09:43:18.909Z,101437.97
2023-04-26T09:45:57.101Z,101423.53
2023-04-26T09:48:26.559Z,101442.56
2023-04-26T09:50:58.664Z,101432.53
2023-04-26T09:53:48.269Z,101427.09
2023-04-26T09:56:21.966Z,101425.47
2023-04-26T09:58:52.392Z,101426.00
2023-04-26T10:01:19.889Z,101420.22
2023-04-26T10:03:47.342Z,101423.34
2023-04-26T10:06:14.263Z,101419.72
2023-04-26T10:08:41.152Z,101419.09
2023-04-26T10:11:09.685Z,101415.63
2023-04-26T10:13:36.203Z,101422.72
2023-04-26T10:16:03.430Z,101429.16
2023-04-26T10:18:33.553Z,101422.22
2023-04-26T10:21:05.472Z,101419.75
2023-04-26T10:23:33.205Z,101421.69
2023-04-26T10:25:59.641Z,101423.19
2023-04-26T10:28:44.397Z,101417.84
2023-04-26T10:31:11.350Z,101415.34
2023-04-26T10:33:38.169Z,101409.44
2023-04-26T10:36:08.605Z,101409.84
2023-04-26T10:38:37.183Z,101412.56
2023-04-26T10:41:32.405Z,101413.22
2023-04-26T10:44:01.478Z,101416.06
2023-04-26T10:46:36.712Z,101410.06
2023-04-26T10:49:17.359Z,101410.97
2023-04-26T10:52:10.285Z,101404.44
2023-04-26T10:54:47.491Z,101404.53
2023-04-26T10:57:14.510Z,101403.69
2023-04-26T10:59:53.906Z,101404.09
2023-04-26T11:02:53.381Z,101390.78
2023-04-26T11:05:50.721Z,101389.47
2023-04-26T11:08:24.829Z,101391.34
2023-04-26T11:10:56.493Z,101391.00
2023-04-26T11:13:23.112Z,101390.41
2023-04-26T11:15:55.041Z,101391.38
2023-04-26T11:18:22.201Z,101399.38
2023-04-26T11:20:48.629Z,101395.22
2023-04-26T11:23:15.513Z,101402.41
2023-04-26T11:25:42.014Z,101396.22
2023-04-26T11:28:08.411Z,101394.97
2023-04-26T11:30:34.849Z,101395.44
2023-04-26T11:33:04.174Z,101395.38
2023-04-26T11:35:34.853Z,101392.97
2023-04-26T11:38:05.347Z,101390.47
2023-04-26T11:40:33.404Z,101382.72
2023-04-26T11:43:01.558Z,101384.97
2023-04-26T11:45:28.438Z,101383.81
2023-04-26T11:47:55.452Z,101382.78
2023-04-26T11:50:26.610Z,101375.84
2023-04-26T11:52:57.053Z,101380.66
2023-04-26T11:55:33.100Z,101383.84
2023-04-26T11:58:00.285Z,101378.28
2023-04-26T12:00:27.297Z,101377.44
2023-04-26T12:02:54.193Z,101382.47
2023-04-26T12:05:24.655Z,101378.66
2023-04-26T12:07:56.599Z,101388.44
2023-04-26T12:10:27.781Z,101384.34
2023-04-26T12:12:58.547Z,101386.13
2023-04-26T12:15:29.228Z,101387.81
2023-04-26T12:18:08.748Z,101382.69
2023-04-26T12:20:39.866Z,101386.44
2023-04-26T12:23:13.038Z,101382.63
2023-04-26T12:25:41.149Z,101390.34
2023-04-26T12:28:13.748Z,101382.09
2023-04-26T12:30:40.991Z,101386.00
2023-04-26T12:33:16.272Z,101382.91
2023-04-26T12:35:43.290Z,101381.34
2023-04-26T12:38:09.769Z,101371.81
2023-04-26T12:40:37.419Z,101381.19
2023-04-26T12:43:03.930Z,101373.47
2023-04-26T12:45:30.405Z,101376.63
2023-04-26T12:47:56.889Z,101380.63
2023-04-26T12:50:23.542Z,101379.03
2023-04-26T12:52:50.314Z,101377.97
2023-04-26T12:55:16.988Z,101368.78
2023-04-26T12:57:44.897Z,101371.66
2023-04-26T13:00:21.430Z,101368.56
2023-04-26T13:02:47.963Z,101365.84
2023-04-26T13:05:14.514Z,101369.59
2023-04-26T13:07:43.252Z,101368.06
2023-04-26T13:10:13.002Z,101366.66
2023-04-26T13:12:40.299Z,101370.31
2023-04-26T13:15:08.361Z,101370.16
2023-04-26T13:17:38.279Z,101375.03
2023-04-26T13:20:06.331Z,101375.25
2023-04-26T13:22:33.431Z,101370.88
2023-04-26T13:24:59.865Z,101373.91
2023-04-26T13:27:28.390Z,101375.56
2023-04-26T13:29:57.136Z,101357.22
2023-04-26T13:32:23.613Z,101361.50
2023-04-26T13:34:50.099Z,101359.78
2023-04-26T13:37:17.690Z,101363.91
2023-04-26T13:39:44.150Z,101362.31
2023-04-26T13:42:11.093Z,101361.00
2023-04-26T13:44:37.433Z,101359.66
2023-04-26T13:47:03.888Z,101353.66
2023-04-26T13:49:30.260Z,101359.66
2023-04-26T13:51:57.784Z,101354.47
2023-04-26T13:54:25.961Z,101355.78
2023-04-26T13:56:53.494Z,101353.75
2023-04-26T13:59:20.437Z,101355.91
2023-04-26T14:01:46.969Z,101352.19
2023-04-26T14:04:13.718Z,101356.19
2023-04-26T14:06:40.640Z,101357.19
2023-04-26T14:09:07.035Z,101347.63
2023-04-26T14:11:33.413Z,101360.28
2023-04-26T14:13:59.850Z,101350.25
2023-04-26T14:16:26.939Z,101353.09
2023-04-26T14:18:53.432Z,101349.00
2023-04-26T14:21:20.040Z,101351.84
2023-04-26T14:23:46.488Z,101349.44
2023-04-26T14:26:13.794Z,101352.03
2023-04-26T14:28:41.057Z,101361.66
2023-04-26T14:31:08.227Z,101363.28
2023-04-26T14:33:35.062Z,101363.75
2023-04-26T14:36:01.466Z,101364.22
2023-04-26T14:38:27.836Z,101360.66
2023-04-26T14:40:54.268Z,101350.59
2023-04-26T14:43:20.635Z,101342.97
2023-04-26T14:45:47.167Z,101340.25
2023-04-26T14:48:13.653Z,101337.06
2023-04-26T14:50:40.086Z,101331.25
2023-04-26T14:53:06.734Z,101328.69
2023-04-26T14:55:33.161Z,101332.16
2023-04-26T14:57:59.509Z,101330.94
2023-04-26T15:00:25.951Z,101332.16
2023-04-26T15:02:52.426Z,101333.50
2023-04-26T15:05:19.102Z,101331.78
2023-04-26T15:07:45.567Z,101329.59
2023-04-26T15:10:11.982Z,101336.72
2023-04-26T15:12:38.415Z,101333.44
2023-04-26T15:15:05.230Z,101331.53
2023-04-26T15:17:32.714Z,101323.56
2023-04-26T15:19:59.267Z,101326.44
2023-04-26T15:22:26.401Z,101329.84
2023-04-26T15:24:52.905Z,101321.31
2023-04-26T15:27:19.303Z,101314.56
2023-04-26T15:29:46.423Z,101311.09
2023-04-26T15:32:13.061Z,101317.09
2023-04-26T15:34:43.404Z,101316.75
2023-04-26T15:37:10.436Z,101323.47
2023-04-26T15:39:37.404Z,101320.47
2023-04-26T15:42:08.095Z,101316.56
2023-04-26T15:44:34.531Z,101322.75
2023-04-26T15:47:01.614Z,101322.56
2023-04-26T15:49:28.623Z,101323.31
2023-04-26T15:51:55.442Z,101323.03
2023-04-26T15:54:22.180Z,101320.19
2023-04-26T15:56:48.710Z,101318.22
2023-04-26T15:59:15.243Z,101327.66
2023-04-26T16:01:41.662Z,101323.19
2023-04-26T16:04:08.813Z,101328.84
2023-04-26T16:06:35.995Z,101326.19
2023-04-26T16:09:20.883Z,101323.75
2023-04-26T16:11:50.970Z,101333.53
2023-04-26T16:14:17.595Z,101326.94
2023-04-26T16:16:45.821Z,101324.53
2023-04-26T16:19:12.363Z,101336.78
2023-04-26T16:21:40.076Z,101332.94
2023-04-26T16:24:09.032Z,101323.88
2023-04-26T16:26:35.906Z,101324.53
2023-04-26T16:29:03.801Z,101326.50
2023-04-26T16:31:31.843Z,101331.50
2023-04-26T16:33:58.707Z,101325.19
2023-04-26T16:36:25.243Z,101317.22
2023-04-26T16:38:51.847Z,101316.19
2023-04-26T16:41:18.209Z,101321.78
2023-04-26T16:43:44.715Z,101310.81
2023-04-26T16:46:11.569Z,101309.41
2023-04-26T16:48:38.883Z,101309.25
2023-04-26T16:51:07.638Z,101317.28
2023-04-26T16:53:35.126Z,101315.06
2023-04-26T16:56:01.589Z,101319.63
2023-04-26T16:58:28.093Z,101320.44
2023-04-26T17:00:54.732Z,101318.31
2023-04-26T17:03:21.534Z,101321.13
2023-04-26T17:05:48.495Z,101327.25
2023-04-26T17:08:16.574Z,101323.41
2023-04-26T17:10:43.960Z,101327.72
2023-04-26T17:13:12.553Z,101326.75
2023-04-26T17:15:40.933Z,101336.69
2023-04-26T17:18:08.395Z,101327.94
2023-04-26T17:20:35.498Z,101329.63
2023-04-26T17:23:03.937Z,101336.22
2023-04-26T17:25:30.403Z,101325.72
2023-04-26T17:27:56.734Z,101332.50
2023-04-26T17:30:23.496Z,101327.56
2023-04-26T17:32:49.935Z,101333.97
2023-04-26T17:35:16.553Z,101326.91
2023-04-26T17:37:43.033Z,101326.28
2023-04-26T17:40:09.922Z,101321.66
2023-04-26T17:42:36.397Z,101326.97
2023-04-26T17:45:05.017Z,101331.53
2023-04-26T17:47:31.535Z,101334.19
2023-04-26T17:49:58.570Z,101337.16
2023-04-26T17:52:25.178Z,101341.75
2023-04-26T17:54:51.596Z,101336.81
2023-04-26T17:57:20.096Z,101333.38
2023-04-26T17:59:46.622Z,101337.81
2023-04-26T18:02:13.205Z,101335.19
2023-04-26T18:04:40.085Z,101337.16
2023-04-26T18:07:07.565Z,101337.81
2023-04-26T18:09:33.956Z,101339.47
2023-04-26T18:12:00.361Z,101343.91
2023-04-26T18:14:27.862Z,101341.94
2023-04-26T18:16:54.556Z,101350.66
2023-04-26T18:19:21.045Z,101344.03
2023-04-26T18:21:50.941Z,101347.50
2023-04-26T18:24:17.384Z,101353.25
2023-04-26T18:26:43.836Z,101350.97
2023-04-26T18:29:10.380Z,101354.56
2023-04-26T18:31:36.944Z,101360.13
2023-04-26T18:34:03.478Z,101355.53
2023-04-26T18:36:31.816Z,101349.97
2023-04-26T18:38:59.821Z,101353.06
2023-04-26T18:41:27.325Z,101363.72
2023-04-26T18:43:53.816Z,101360.41
2023-04-26T18:46:20.225Z,101360.72
2023-04-26T18:48:47.376Z,101362.69
2023-04-26T18:51:13.739Z,101367.81
2023-04-26T18:53:40.324Z,101365.28
2023-04-26T18:56:06.903Z,101368.91
2023-04-26T18:58:33.333Z,101370.56
2023-04-26T19:00:59.716Z,101375.63
2023-04-26T19:03:26.729Z,101374.97
2023-04-26T19:05:53.482Z,101371.84
2023-04-26T19:08:19.879Z,101369.81
2023-04-26T19:10:46.286Z,101374.28
2023-04-26T19:13:12.632Z,101372.25
2023-04-26T19:15:39.026Z,101379.31
2023-04-26T19:18:05.544Z,101382.91
2023-04-26T19:20:31.922Z,101382.56
2023-04-26T19:22:58.383Z,101387.78
2023-04-26T19:25:25.419Z,101390.88
2023-04-26T19:27:52.245Z,101390.81
2023-04-26T19:30:18.636Z,101396.03
2023-04-26T19:32:45.094Z,101400.53
2023-04-26T19:35:11.569Z,101394.84
2023-04-26T19:37:37.938Z,101402.72
2023-04-26T19:40:07.556Z,101401.75
2023-04-26T19:42:33.961Z,101402.28
2023-04-26T19:45:00.517Z,101409.38
2023-04-26T19:47:27.056Z,101405.47
2023-04-26T19:49:55.438Z,101407.03
2023-04-26T19:52:21.864Z,101406.19
2023-04-26T19:54:48.197Z,101408.59
2023-04-26T19:57:15.285Z,101418.28
2023-04-26T19:59:41.617Z,101414.28
2023-04-26T20:02:08.016Z,101421.19
2023-04-26T20:04:34.449Z,101425.59
2023-04-26T20:07:01.201Z,101433.91
2023-04-26T20:09:27.621Z,101426.44
2023-04-26T20:11:54.037Z,101430.34
2023-04-26T20:14:20.444Z,101430.09
2023-04-26T20:16:47.367Z,101433.69
2023-04-26T20:19:14.519Z,101431.81
2023-04-26T20:21:40.901Z,101426.34
2023-04-26T20:24:07.662Z,101435.16
2023-04-26T20:26:34.066Z,101432.09
2023-04-26T20:29:00.428Z,101441.47
2023-04-26T20:31:26.934Z,101441.53
2023-04-26T20:33:53.588Z,101434.94
2023-04-26T20:36:20.643Z,101435.03
2023-04-26T20:38:47.319Z,101439.44
2023-04-26T20:41:13.866Z,101432.66
2023-04-26T20:43:40.360Z,101432.78
2023-04-26T20:46:06.920Z,101436.75
2023-04-26T20:48:33.379Z,101434.53
2023-04-26T20:51:01.778Z,101430.16
2023-04-26T20:53:28.131Z,101428.22
2023-04-26T20:55:54.632Z,101429.88
2023-04-26T20:58:21.014Z,101429.88
2023-04-26T21:00:55.111Z,101432.41
2023-04-26T21:03:22.007Z,101425.06
2023-04-26T21:05:48.599Z,101429.25
2023-04-26T21:08:15.118Z,101419.19
2023-04-26T21:10:41.444Z,101429.69
2023-04-26T21:13:08.046Z,101433.66
2023-04-26T21:15:34.559Z,101424.75
2023-04-26T21:18:01.030Z,101430.03
2023-04-26T21:20:27.395Z,101431.53
2023-04-26T21:22:53.844Z,101430.63
2023-04-26T21:25:20.674Z,101437.25
2023-04-26T21:27:47.087Z,101435.13
2023-04-26T21:30:13.815Z,101430.19
2023-04-26T21:32:41.236Z,101436.94
2023-04-26T21:35:08.158Z,101438.66
2023-04-26T21:37:34.585Z,101436.59
2023-04-26T21:40:01.824Z,101434.34
2023-04-26T21:42:28.219Z,101439.97
2023-04-26T21:44:54.575Z,101442.22
2023-04-26T21:47:21.016Z,101444.25
2023-04-26T21:49:47.378Z,101444.94
2023-04-26T21:52:13.752Z,101434.78
2023-04-26T21:54:40.344Z,101445.38
2023-04-26T21:57:06.972Z,101431.59
2023-04-26T21:59:33.797Z,101438.91
2023-04-26T22:02:00.294Z,101437.16
2023-04-26T22:04:26.907Z,101434.28
2023-04-26T22:06:53.373Z,101438.94
2023-04-26T22:09:20.948Z,101442.91
2023-04-26T22:11:47.354Z,101446.00
2023-04-26T22:14:14.028Z,101448.38
2023-04-26T22:16:40.443Z,101449.06
2023-04-26T22:19:06.979Z,101443.28
2023-04-26T22:21:33.414Z,101453.06
2023-04-26T22:24:00.185Z,101452.66
2023-04-26T22:26:26.750Z,101441.50
2023-04-26T22:28:53.124Z,101445.75
2023-04-26T22:31:19.614Z,101445.06
2023-04-26T22:33:46.245Z,101447.97
2023-04-26T22:36:13.059Z,101449.94
2023-04-26T22:38:39.751Z,101455.31
2023-04-26T22:41:07.159Z,101445.13
2023-04-26T22:43:34.258Z,101454.09
2023-04-26T22:46:00.656Z,101456.97
2023-04-26T22:48:27.203Z,101463.97
2023-04-26T22:50:53.714Z,101458.47
2023-04-26T22:53:21.487Z,101464.81
2023-04-26T22:55:47.863Z,101464.81
2023-04-26T22:58:14.538Z,101457.22
2023-04-26T23:00:41.079Z,101462.28
2023-04-26T23:03:07.541Z,101471.22
2023-04-26T23:05:34.084Z,101462.28
2023-04-26T23:08:00.461Z,101461.84
2023-04-26T23:10:27.255Z,101466.97
2023-04-26T23:12:55.128Z,101462.66
2023-04-26T23:15:21.625Z,101465.81
2023-04-26T23:17:48.525Z,101465.38
2023-04-26T23:20:15.639Z,101460.50
2023-04-26T23:22:42.942Z,101473.66
2023-04-26T23:25:10.109Z,101465.28
2023-04-26T23:27:37.586Z,101466.81
2023-04-26T23:30:04.940Z,101468.97
2023-04-26T23:32:31.474Z,101478.84
2023-04-26T23:34:57.852Z,101478.16
2023-04-26T23:37:24.230Z,101480.94
2023-04-26T23:39:50.995Z,101471.72
2023-04-26T23:42:17.484Z,101466.47
2023-04-26T23:44:43.861Z,101473.31
2023-04-26T23:47:10.332Z,101471.31
2023-04-26T23:49:36.726Z,101472.31
2023-04-26T23:52:03.109Z,101484.31
2023-04-26T23:54:29.549Z,101478.78
2023-04-26T23:56:56.017Z,101477.19
2023-04-26T23:59:23.206Z,101486.03
